Time;durP1;ratioP1;P1;durP2;ratioP2;P2;SDS_P1;SDS_P2;PMS_P1;PMS_P2;Temp;Humidity;BMP_temperature;BMP_pressure;BME280_temperature;BME280_humidity;BME280_pressure;Samples;Min_cycle;Max_cycle;Signal;HPM_P1;HPM_P2
2021/08/23 00:01:28;;;;;;;19.17;16.08;;;19.00;99.90;;;;;;5072007;28;20036;-86
2021/08/23 00:03:54;;;;;;;19.13;16.23;;;19.00;99.90;;;;;;5038438;28;20079;-86
2021/08/23 00:06:20;;;;;;;18.92;16.35;;;19.00;99.90;;;;;;5054905;28;20487;-86
2021/08/23 00:08:46;;;;;;;18.25;16.08;;;19.00;99.90;;;;;;5054946;28;20033;-86
2021/08/23 00:11:11;;;;;;;19.73;16.65;;;19.00;99.90;;;;;;5038445;28;20036;-86
2021/08/23 00:13:37;;;;;;;21.02;17.33;;;19.00;99.90;;;;;;5054880;28;20509;-86
2021/08/23 00:16:03;;;;;;;21.15;17.60;;;18.90;99.90;;;;;;5038354;28;20022;-86
2021/08/23 00:18:28;;;;;;;21.15;18.15;;;18.90;99.90;;;;;;5021715;28;20500;-86
2021/08/23 00:20:56;;;;;;;20.83;17.90;;;18.90;99.90;;;;;;5021703;28;20029;-86
2021/08/23 00:23:25;;;;;;;23.25;19.10;;;18.90;99.90;;;;;;5020807;28;20583;-86
2021/08/23 00:25:51;;;;;;;22.90;19.05;;;18.90;99.90;;;;;;5021941;28;20108;-86
2021/08/23 00:28:17;;;;;;;24.25;18.60;;;18.90;99.90;;;;;;5038168;28;20542;-86
2021/08/23 00:30:43;;;;;;;22.65;18.05;;;18.90;99.90;;;;;;5024917;28;20119;-87
2021/08/23 00:33:10;;;;;;;21.00;18.45;;;18.90;99.90;;;;;;5039021;28;20025;-86
2021/08/23 00:35:35;;;;;;;21.17;17.92;;;18.80;99.90;;;;;;5038041;28;20028;-86
2021/08/23 00:38:02;;;;;;;21.80;17.58;;;18.90;99.90;;;;;;5021511;28;20024;-86
2021/08/23 00:40:28;;;;;;;21.25;18.17;;;18.80;99.90;;;;;;5022647;28;20061;-87
2021/08/23 00:42:54;;;;;;;19.20;16.25;;;18.80;99.90;;;;;;5005861;28;20052;-87
2021/08/23 00:45:21;;;;;;;21.05;17.77;;;18.90;99.90;;;;;;5021479;28;20461;-87
2021/08/23 00:47:47;;;;;;;20.83;17.17;;;18.80;99.90;;;;;;5037927;28;20367;-87
2021/08/23 00:50:13;;;;;;;21.77;16.75;;;18.80;99.90;;;;;;5021471;28;20057;-87
2021/08/23 00:52:39;;;;;;;20.65;17.23;;;18.80;99.90;;;;;;5021465;28;20455;-87
2021/08/23 00:55:05;;;;;;;18.88;16.27;;;18.80;99.90;;;;;;5037859;28;20013;-87
2021/08/23 00:57:30;;;;;;;18.67;16.58;;;18.80;99.90;;;;;;5038451;28;20116;-87
2021/08/23 00:59:56;;;;;;;19.63;16.33;;;18.80;99.90;;;;;;5004969;28;20071;-87
2021/08/23 01:02:22;;;;;;;19.17;16.10;;;18.80;99.90;;;;;;5037713;28;20036;-87
2021/08/23 01:04:59;;;;;;;20.00;15.60;;;18.70;99.90;;;;;;5037340;28;20493;-87
2021/08/23 01:07:28;;;;;;;20.30;16.90;;;18.70;99.90;;;;;;5055274;28;20049;-87
2021/08/23 01:10:02;;;;;;;20.30;16.60;;;18.70;99.90;;;;;;5055468;28;20434;-87
2021/08/23 01:12:29;;;;;;;20.98;17.23;;;18.70;99.90;;;;;;5037505;28;20024;-87
2021/08/23 01:14:55;;;;;;;20.70;17.52;;;18.70;99.90;;;;;;5021135;28;20096;-87
2021/08/23 01:17:21;;;;;;;21.20;18.48;;;18.70;99.90;;;;;;5020894;28;20029;-87
2021/08/23 01:19:52;;;;;;;25.00;18.88;;;18.70;99.90;;;;;;5037444;28;20033;-85
2021/08/23 01:22:19;;;;;;;21.88;18.90;;;18.70;99.90;;;;;;5055816;28;20037;-87
2021/08/23 01:24:50;;;;;;;23.85;19.80;;;18.70;99.90;;;;;;5037218;28;20021;-86
2021/08/23 01:27:16;;;;;;;23.92;19.10;;;18.70;99.90;;;;;;5037287;28;20032;-87
2021/08/23 01:30:04;;;;;;;22.55;20.15;;;18.70;99.90;;;;;;5020638;28;20043;-86
2021/08/23 01:32:31;;;;;;;26.85;20.02;;;18.60;99.90;;;;;;5036984;28;20112;-86
2021/08/23 01:34:57;;;;;;;22.15;19.35;;;18.70;99.90;;;;;;5020463;28;20059;-87
2021/08/23 01:37:24;;;;;;;24.23;20.27;;;18.60;99.90;;;;;;5020484;28;20390;-86
2021/08/23 01:39:50;;;;;;;27.48;20.58;;;18.70;99.90;;;;;;5037197;28;20033;-87
2021/08/23 01:42:17;;;;;;;24.52;21.08;;;18.60;99.90;;;;;;5036761;28;20087;-86
2021/08/23 01:44:44;;;;;;;25.35;21.10;;;18.60;99.90;;;;;;5036857;28;20079;-87
2021/08/23 01:47:09;;;;;;;25.02;21.85;;;18.60;99.90;;;;;;5020519;28;20036;-87
2021/08/23 01:49:37;;;;;;;23.50;20.73;;;18.60;99.90;;;;;;5020423;28;20025;-87
2021/08/23 01:52:03;;;;;;;23.48;20.27;;;18.60;99.90;;;;;;5036617;28;20053;-86
2021/08/23 01:54:29;;;;;;;28.23;21.52;;;18.60;99.90;;;;;;5021080;28;20489;-87
2021/08/23 01:56:54;;;;;;;26.48;20.73;;;18.60;99.90;;;;;;5036738;28;20044;-86
2021/08/23 01:59:20;;;;;;;22.77;20.10;;;18.60;99.90;;;;;;5020180;28;20378;-86
2021/08/23 02:01:46;;;;;;;25.20;20.90;;;18.60;99.90;;;;;;5020195;28;20070;-86
2021/08/23 02:04:11;;;;;;;26.42;21.70;;;18.60;99.90;;;;;;5020093;28;20048;-86
2021/08/23 02:06:37;;;;;;;27.33;21.80;;;18.60;99.90;;;;;;5054002;28;20045;-86
2021/08/23 02:09:04;;;;;;;30.98;23.10;;;18.60;99.90;;;;;;5036346;28;20032;-87
2021/08/23 02:11:29;;;;;;;29.65;22.60;;;18.60;99.90;;;;;;5003532;28;20040;-86
2021/08/23 02:13:55;;;;;;;35.05;23.02;;;18.60;99.90;;;;;;5019970;28;20355;-86
2021/08/23 02:16:21;;;;;;;35.08;24.23;;;18.60;99.90;;;;;;5019752;28;20025;-86
2021/08/23 02:18:50;;;;;;;34.60;23.88;;;18.60;99.90;;;;;;5019661;28;20025;-87
2021/08/23 02:21:19;;;;;;;35.92;25.02;;;18.60;99.90;;;;;;5019684;28;20025;-87
2021/08/23 02:23:46;;;;;;;37.80;25.30;;;18.60;99.90;;;;;;5020132;28;20053;-86
2021/08/23 02:26:12;;;;;;;38.55;25.60;;;18.60;99.90;;;;;;5036024;28;20029;-86
2021/08/23 02:28:37;;;;;;;37.40;25.35;;;18.60;99.90;;;;;;5019605;28;20025;-86
2021/08/23 02:31:03;;;;;;;40.08;26.85;;;18.60;99.90;;;;;;5036583;28;20037;-86
2021/08/23 02:33:29;;;;;;;39.20;26.15;;;18.50;99.90;;;;;;5019584;28;20382;-87
2021/08/23 02:35:55;;;;;;;37.75;25.25;;;18.60;99.90;;;;;;5019553;28;20386;-86
2021/08/23 02:38:20;;;;;;;36.88;24.40;;;18.60;99.90;;;;;;5002967;28;20549;-86
2021/08/23 02:40:46;;;;;;;37.67;24.88;;;18.60;99.90;;;;;;5036441;28;20032;-86
2021/08/23 02:43:12;;;;;;;35.17;24.75;;;18.60;99.90;;;;;;5019312;28;20021;-86
2021/08/23 02:45:37;;;;;;;37.85;25.38;;;18.60;99.90;;;;;;5018656;28;20033;-86
2021/08/23 02:48:03;;;;;;;35.15;25.27;;;18.60;99.90;;;;;;5019446;28;20475;-87
2021/08/23 02:50:29;;;;;;;35.45;24.42;;;18.60;99.90;;;;;;5053739;28;20021;-87
2021/08/23 02:52:54;;;;;;;32.83;23.48;;;18.60;99.90;;;;;;5019182;28;20025;-86
2021/08/23 02:55:20;;;;;;;33.45;24.48;;;18.50;99.90;;;;;;5019193;28;20040;-86
2021/08/23 02:57:46;;;;;;;29.05;21.95;;;18.60;99.90;;;;;;5035548;28;20029;-86
2021/08/23 03:00:12;;;;;;;30.38;22.83;;;18.60;99.90;;;;;;5019220;28;20124;-87
2021/08/23 03:02:38;;;;;;;31.35;21.33;;;18.50;99.90;;;;;;5019122;28;20055;-87
2021/08/23 03:05:04;;;;;;;27.83;19.92;;;18.60;99.90;;;;;;5019162;28;20443;-87
2021/08/23 03:07:30;;;;;;;27.48;19.58;;;18.60;99.90;;;;;;5018959;28;20081;-87
2021/08/23 03:09:56;;;;;;;24.05;19.08;;;18.60;99.90;;;;;;5019171;28;20064;-87
2021/08/23 03:12:22;;;;;;;23.35;17.75;;;18.60;99.90;;;;;;5018997;28;20486;-87
2021/08/23 03:14:48;;;;;;;24.15;17.58;;;18.50;99.90;;;;;;5035399;28;20025;-86
2021/08/23 03:17:14;;;;;;;22.23;16.88;;;18.60;99.90;;;;;;5002829;28;20021;-86
2021/08/23 03:19:40;;;;;;;19.60;15.32;;;18.60;99.90;;;;;;5035391;28;20536;-86
2021/08/23 03:22:06;;;;;;;21.27;15.15;;;18.60;99.90;;;;;;5035465;28;20029;-86
2021/08/23 03:24:32;;;;;;;17.27;13.50;;;18.60;99.90;;;;;;5002711;28;20501;-86
2021/08/23 03:26:58;;;;;;;18.95;13.90;;;18.50;99.90;;;;;;5035875;28;20048;-87
2021/08/23 03:29:25;;;;;;;18.35;14.13;;;18.60;99.90;;;;;;5020057;28;20470;-87
2021/08/23 03:31:51;;;;;;;21.70;15.43;;;18.50;99.90;;;;;;5018877;28;20486;-87
2021/08/23 03:34:17;;;;;;;24.42;17.50;;;18.60;99.90;;;;;;5035308;28;20021;-86
2021/08/23 03:36:47;;;;;;;26.70;18.73;;;18.60;99.90;;;;;;5035181;28;20017;-87
2021/08/23 03:39:14;;;;;;;28.40;20.05;;;18.50;99.90;;;;;;5019589;28;20101;-86
2021/08/23 03:41:40;;;;;;;32.10;21.83;;;18.50;99.90;;;;;;5018747;28;20501;-87
2021/08/23 03:44:06;;;;;;;33.67;22.88;;;18.50;99.90;;;;;;5035387;28;20021;-86
2021/08/23 03:46:33;;;;;;;33.15;22.48;;;18.50;99.90;;;;;;5018766;28;20029;-87
2021/08/23 03:49:03;;;;;;;34.33;22.95;;;18.50;99.90;;;;;;5035077;28;20025;-86
2021/08/23 03:51:29;;;;;;;35.33;23.13;;;18.50;99.90;;;;;;5018689;28;20029;-87
2021/08/23 03:53:55;;;;;;;37.58;24.25;;;18.50;99.90;;;;;;5035035;28;20021;-86
2021/08/23 03:56:21;;;;;;;35.25;24.08;;;18.50;99.90;;;;;;5035088;28;20025;-85
2021/08/23 03:58:47;;;;;;;37.53;24.17;;;18.50;99.90;;;;;;5039171;28;20020;-86
2021/08/23 04:01:13;;;;;;;36.03;23.83;;;18.50;99.90;;;;;;5057149;28;20025;-86
2021/08/23 04:03:38;;;;;;;33.00;23.25;;;18.50;99.90;;;;;;5038673;28;20076;-86
2021/08/23 04:06:04;;;;;;;35.95;24.05;;;18.40;99.90;;;;;;5021906;28;20048;-87
2021/08/23 04:08:33;;;;;;;34.75;23.77;;;18.40;99.90;;;;;;5022196;28;20040;-86
2021/08/23 04:10:58;;;;;;;39.08;24.58;;;18.40;99.90;;;;;;5021979;28;20110;-86
2021/08/23 04:16:50;;;;;;;38.42;24.58;;;18.40;99.90;;;;;;5056551;28;20481;-86
2021/08/23 04:19:16;;;;;;;36.53;24.15;;;18.40;99.90;;;;;;5022045;28;20021;-86
2021/08/23 04:21:41;;;;;;;37.58;25.45;;;18.30;99.90;;;;;;5021921;28;20029;-86
2021/08/23 04:24:07;;;;;;;40.65;24.10;;;18.30;99.90;;;;;;5021885;28;20095;-86
2021/08/23 04:26:33;;;;;;;35.30;23.55;;;18.30;99.90;;;;;;5021784;28;20119;-86
2021/08/23 04:28:59;;;;;;;35.42;23.67;;;18.30;99.90;;;;;;5056729;28;20398;-86
2021/08/23 04:31:26;;;;;;;36.85;24.17;;;18.30;99.90;;;;;;5021654;28;20040;-87
2021/08/23 04:33:51;;;;;;;39.60;23.95;;;18.30;99.90;;;;;;5039143;28;20029;-87
2021/08/23 04:39:39;;;;;;;36.28;23.85;;;18.30;99.90;;;;;;5056315;28;20028;-87
2021/08/23 04:42:06;;;;;;;38.25;23.92;;;18.20;99.90;;;;;;5038057;28;20025;-86
2021/08/23 04:44:31;;;;;;;40.45;26.08;;;18.30;99.90;;;;;;5038730;28;20029;-86
2021/08/23 04:46:57;;;;;;;41.42;27.27;;;18.20;99.90;;;;;;5021499;28;20493;-87
2021/08/23 04:49:23;;;;;;;40.58;25.77;;;18.20;99.90;;;;;;5021453;28;20025;-86
2021/08/23 04:51:48;;;;;;;40.80;25.23;;;18.20;99.90;;;;;;5021255;28;20028;-86
2021/08/23 04:54:14;;;;;;;43.33;25.30;;;18.20;99.90;;;;;;5021339;28;20111;-86
2021/08/23 04:56:40;;;;;;;37.97;24.15;;;18.20;99.90;;;;;;5037799;28;20160;-86
2021/08/23 04:59:05;;;;;;;39.58;23.60;;;18.20;99.90;;;;;;5021266;28;20017;-87
2021/08/23 05:01:31;;;;;;;37.08;22.67;;;18.20;99.90;;;;;;5037835;28;20493;-86
2021/08/23 05:03:57;;;;;;;37.38;22.40;;;18.20;99.90;;;;;;5037947;28;20044;-86
2021/08/23 05:06:22;;;;;;;36.88;23.02;;;18.20;99.90;;;;;;5035581;23;20056;-87
2021/08/23 05:08:48;;;;;;;34.33;20.88;;;18.20;99.90;;;;;;5021050;28;20033;-87
2021/08/23 05:11:14;;;;;;;33.88;20.45;;;18.20;99.90;;;;;;5021443;28;20401;-87
2021/08/23 05:13:39;;;;;;;34.38;21.05;;;18.10;99.90;;;;;;5038021;28;20363;-87
2021/08/23 05:16:05;;;;;;;35.42;21.45;;;18.10;99.90;;;;;;5037637;28;20478;-87
2021/08/23 05:18:31;;;;;;;36.97;21.75;;;18.10;99.90;;;;;;5037524;28;20025;-87
2021/08/23 05:21:02;;;;;;;32.72;21.75;;;18.10;99.90;;;;;;5037804;28;20029;-87
2021/08/23 05:23:28;;;;;;;35.03;21.10;;;18.10;99.90;;;;;;5037513;28;20036;-87
2021/08/23 05:25:54;;;;;;;37.92;21.15;;;18.10;99.90;;;;;;5054166;28;20029;-87
2021/08/23 05:28:19;;;;;;;34.53;21.15;;;18.00;99.90;;;;;;5037604;28;20209;-87
2021/08/23 05:30:45;;;;;;;36.33;21.35;;;18.00;99.90;;;;;;5037535;28;20125;-87
2021/08/23 05:33:11;;;;;;;35.85;21.10;;;18.00;99.90;;;;;;5037396;28;20060;-87
2021/08/23 05:35:36;;;;;;;34.40;19.58;;;18.00;99.90;;;;;;5037303;28;20053;-87
2021/08/23 05:41:24;;;;;;;32.88;19.63;;;18.00;99.90;;;;;;5055537;28;20493;-86
2021/08/23 05:43:50;;;;;;;31.50;19.98;;;18.00;99.90;;;;;;5037151;28;20036;-87
2021/08/23 05:46:20;;;;;;;34.75;20.05;;;18.00;99.90;;;;;;5037059;28;20029;-86
2021/08/23 05:48:46;;;;;;;34.08;19.42;;;18.00;99.90;;;;;;5055396;28;20025;-87
2021/08/23 05:51:14;;;;;;;32.58;19.45;;;18.00;99.90;;;;;;5054081;28;20355;-86
2021/08/23 05:53:41;;;;;;;30.20;19.65;;;18.00;99.90;;;;;;5041148;28;20119;-87
2021/08/23 05:56:07;;;;;;;29.35;17.70;;;18.00;99.90;;;;;;5039012;28;20033;-87
2021/08/23 05:58:33;;;;;;;28.13;20.20;;;18.00;99.90;;;;;;5037089;28;20025;-87
2021/08/23 06:00:58;;;;;;;28.02;19.50;;;18.00;99.90;;;;;;5036997;28;20467;-87
2021/08/23 06:03:24;;;;;;;26.42;19.58;;;18.00;99.90;;;;;;5037097;28;20033;-87
2021/08/23 06:05:50;;;;;;;30.67;20.85;;;18.00;99.90;;;;;;5036811;28;20037;-86
2021/08/23 06:08:15;;;;;;;29.85;20.55;;;18.00;99.90;;;;;;5037627;28;20035;-87
2021/08/23 06:10:41;;;;;;;27.75;19.58;;;18.00;99.90;;;;;;5037786;28;20025;-87
2021/08/23 06:13:07;;;;;;;29.75;21.60;;;17.90;99.90;;;;;;5039125;28;20060;-86
2021/08/23 06:15:33;;;;;;;29.25;21.52;;;17.90;99.90;;;;;;5039335;28;20468;-87
2021/08/23 06:17:59;;;;;;;34.33;22.15;;;17.90;99.90;;;;;;5037888;28;20021;-87
2021/08/23 06:20:24;;;;;;;30.30;20.75;;;18.00;99.90;;;;;;5058144;28;20021;-86
2021/08/23 06:22:51;;;;;;;27.48;20.23;;;17.90;99.90;;;;;;5042023;28;20482;-86
2021/08/23 06:25:17;;;;;;;29.92;20.13;;;17.90;99.90;;;;;;5044795;28;20029;-87
2021/08/23 06:27:42;;;;;;;25.63;19.85;;;17.90;99.90;;;;;;5046380;28;20096;-87
2021/08/23 06:30:09;;;;;;;28.88;19.88;;;17.90;99.90;;;;;;5043348;28;20080;-87
2021/08/23 06:32:35;;;;;;;27.98;19.63;;;17.90;99.90;;;;;;5040131;28;20482;-87
2021/08/23 06:35:03;;;;;;;27.08;19.45;;;17.90;99.90;;;;;;5037042;28;20032;-86
2021/08/23 06:37:30;;;;;;;27.92;19.25;;;17.90;99.90;;;;;;5037363;28;20441;-86
2021/08/23 06:39:57;;;;;;;27.92;18.65;;;17.90;99.90;;;;;;5052995;28;20463;-86
2021/08/23 06:42:23;;;;;;;24.55;18.67;;;17.90;99.90;;;;;;5037295;28;20027;-86
2021/08/23 06:44:48;;;;;;;26.30;18.02;;;17.90;99.90;;;;;;5037437;28;20119;-86
2021/08/23 06:47:16;;;;;;;25.20;18.05;;;17.90;99.90;;;;;;5037722;28;20078;-86
2021/08/23 06:49:42;;;;;;;23.50;17.05;;;18.00;99.90;;;;;;5053216;28;20021;-87
2021/08/23 06:52:08;;;;;;;24.00;17.02;;;18.00;99.90;;;;;;5036400;28;20055;-86
2021/08/23 06:54:34;;;;;;;26.73;17.25;;;18.00;99.90;;;;;;5037117;28;20537;-86
2021/08/23 06:57:01;;;;;;;23.25;17.10;;;18.00;99.90;;;;;;5037489;28;20116;-86
2021/08/23 06:59:28;;;;;;;21.60;16.15;;;18.00;99.90;;;;;;5053321;28;20021;-86
2021/08/23 07:01:54;;;;;;;21.52;15.27;;;18.00;99.90;;;;;;5036930;28;20033;-86
2021/08/23 07:04:19;;;;;;;22.88;15.35;;;18.00;99.90;;;;;;5037871;28;20029;-86
2021/08/23 07:06:46;;;;;;;22.55;14.68;;;18.00;99.90;;;;;;5035928;28;20107;-86
2021/08/23 07:09:12;;;;;;;20.25;13.88;;;18.10;99.90;;;;;;5036517;28;20041;-86
2021/08/23 07:15:00;;;;;;;21.98;13.32;;;18.10;99.90;;;;;;5054667;28;20070;-86
2021/08/23 07:17:26;;;;;;;16.88;12.25;;;18.20;99.90;;;;;;5036710;28;20025;-86
2021/08/23 07:19:51;;;;;;;16.92;11.75;;;18.20;99.90;;;;;;5038628;28;20025;-86
2021/08/23 07:22:19;;;;;;;15.85;11.35;;;18.20;99.90;;;;;;5037362;28;20075;-86
2021/08/23 07:24:46;;;;;;;14.55;9.82;;;18.20;99.90;;;;;;5037741;28;20025;-86
2021/08/23 07:27:13;;;;;;;15.00;10.38;;;18.30;99.90;;;;;;5036930;28;20025;-86
2021/08/23 07:29:39;;;;;;;13.88;9.38;;;18.30;99.90;;;;;;5036887;28;20045;-86
2021/08/23 07:32:06;;;;;;;13.10;9.40;;;18.30;99.90;;;;;;5037688;28;20429;-87
2021/08/23 07:34:31;;;;;;;13.48;9.07;;;18.30;99.90;;;;;;5039762;28;20029;-86
2021/08/23 07:36:57;;;;;;;11.45;8.95;;;18.30;99.90;;;;;;5039618;28;20478;-87
2021/08/23 07:39:22;;;;;;;13.68;9.48;;;18.30;99.90;;;;;;5040161;28;20104;-86
2021/08/23 07:41:50;;;;;;;14.23;9.65;;;18.30;99.90;;;;;;5057011;28;20033;-86
2021/08/23 07:44:15;;;;;;;15.15;9.20;;;18.30;99.90;;;;;;5039257;28;20025;-86
2021/08/23 07:46:44;;;;;;;13.70;9.52;;;18.40;99.90;;;;;;5039354;28;20025;-87
2021/08/23 07:49:10;;;;;;;14.43;9.27;;;18.40;99.90;;;;;;5039514;28;20024;-86
2021/08/23 07:51:35;;;;;;;13.13;8.63;;;18.40;99.90;;;;;;5057057;28;20025;-86
2021/08/23 07:54:01;;;;;;;15.63;9.40;;;18.40;99.90;;;;;;5039821;28;20017;-86
2021/08/23 07:56:29;;;;;;;15.35;9.45;;;18.50;99.90;;;;;;5056220;28;20029;-85
2021/08/23 07:58:58;;;;;;;14.18;9.63;;;18.50;99.90;;;;;;5036230;28;20057;-87
2021/08/23 08:01:25;;;;;;;14.48;10.25;;;18.50;99.90;;;;;;5035824;28;20025;-87
2021/08/23 08:03:51;;;;;;;15.95;9.95;;;18.50;99.90;;;;;;5052699;28;20033;-87
2021/08/23 08:06:18;;;;;;;14.63;9.80;;;18.50;99.90;;;;;;5038924;28;20391;-87
2021/08/23 08:08:44;;;;;;;13.07;8.73;;;18.60;99.90;;;;;;5039066;28;20029;-86
2021/08/23 08:11:09;;;;;;;15.73;9.38;;;18.60;99.90;;;;;;5039336;28;20029;-86
2021/08/23 08:13:35;;;;;;;13.65;8.98;;;18.60;99.90;;;;;;5039472;28;20017;-86
2021/08/23 08:16:02;;;;;;;14.50;8.85;;;18.60;99.90;;;;;;5039246;28;20091;-86
2021/08/23 08:18:28;;;;;;;12.57;8.68;;;18.60;99.90;;;;;;5042105;28;20489;-87
2021/08/23 08:20:53;;;;;;;12.38;8.38;;;18.60;99.90;;;;;;5039075;28;20021;-87
2021/08/23 08:23:19;;;;;;;11.68;8.38;;;18.70;99.90;;;;;;5038733;28;20388;-87
2021/08/23 08:25:45;;;;;;;11.93;8.73;;;18.70;99.90;;;;;;5038870;28;20109;-87
2021/08/23 08:28:11;;;;;;;16.00;9.27;;;18.70;99.90;;;;;;5038989;28;20120;-87
2021/08/23 08:30:38;;;;;;;13.88;8.43;;;18.70;99.90;;;;;;5038851;28;20025;-87
2021/08/23 08:33:04;;;;;;;13.02;7.88;;;18.70;99.90;;;;;;5040148;28;20029;-87
2021/08/23 08:35:30;;;;;;;12.27;8.27;;;18.70;99.90;;;;;;5044576;28;20036;-87
2021/08/23 08:37:56;;;;;;;12.18;8.07;;;18.80;99.90;;;;;;5045729;28;20016;-87
2021/08/23 08:40:23;;;;;;;12.20;7.85;;;18.70;99.90;;;;;;5041965;28;20029;-87
2021/08/23 08:42:49;;;;;;;11.93;7.85;;;18.80;99.90;;;;;;5039650;28;20040;-87
2021/08/23 08:45:15;;;;;;;11.30;7.30;;;18.80;99.90;;;;;;5039416;28;20021;-86
2021/08/23 08:47:43;;;;;;;13.70;7.45;;;18.90;99.90;;;;;;5041751;28;20032;-87
2021/08/23 08:50:14;;;;;;;8.80;6.47;;;18.90;99.90;;;;;;5041644;28;20036;-87
2021/08/23 08:52:42;;;;;;;;;;;18.90;99.90;;;;;;5042581;28;20029;-87
2021/08/23 08:55:08;;;;;;;7.90;5.90;;;19.00;99.90;;;;;;5041221;28;20003;-87
2021/08/23 08:57:34;;;;;;;9.57;5.90;;;19.00;99.90;;;;;;5039057;28;20543;-87
2021/08/23 09:00:00;;;;;;;9.55;6.38;;;19.10;99.90;;;;;;5038482;28;20019;-87
2021/08/23 09:02:26;;;;;;;10.10;5.60;;;19.10;99.90;;;;;;5056017;28;20017;-87
2021/08/23 09:04:51;;;;;;;9.75;5.57;;;19.10;99.90;;;;;;5038117;28;20032;-87
2021/08/23 09:07:17;;;;;;;7.30;5.68;;;19.10;99.90;;;;;;5038081;28;20045;-87
2021/08/23 09:09:46;;;;;;;8.30;5.95;;;19.20;99.90;;;;;;5038197;28;20028;-87
2021/08/23 09:12:14;;;;;;;7.22;5.13;;;19.20;99.90;;;;;;5037946;28;20470;-86
2021/08/23 09:14:55;;;;;;;7.95;5.47;;;19.20;99.90;;;;;;5038423;28;20558;-87
2021/08/23 09:17:21;;;;;;;;;;;19.30;99.90;;;;;;5038511;28;20059;-87
2021/08/23 09:19:57;;;;;;;7.28;5.05;;;19.30;99.90;;;;;;5037824;28;19905;-86
2021/08/23 09:22:25;;;;;;;7.50;5.07;;;19.30;99.90;;;;;;5037586;28;20028;-87
2021/08/23 09:24:50;;;;;;;7.80;5.00;;;19.30;99.90;;;;;;5037560;28;20029;-87
2021/08/23 09:27:16;;;;;;;7.70;5.43;;;19.40;99.90;;;;;;5037951;28;20028;-87
2021/08/23 09:29:56;;;;;;;8.60;5.00;;;19.40;99.90;;;;;;5037667;28;20409;-87
2021/08/23 09:32:33;;;;;;;7.80;5.13;;;19.40;99.90;;;;;;5037611;28;20033;-86
2021/08/23 09:34:59;;;;;;;6.50;5.22;;;19.40;99.90;;;;;;5037437;28;20020;-86
2021/08/23 09:37:30;;;;;;;7.03;4.80;;;19.50;99.90;;;;;;5037511;28;20037;-87
2021/08/23 09:40:07;;;;;;;7.35;5.20;;;19.50;99.90;;;;;;5038123;28;20018;-87
2021/08/23 09:42:32;;;;;;;7.57;5.40;;;19.50;99.90;;;;;;5027076;28;20021;-86
2021/08/23 09:44:58;;;;;;;8.48;5.18;;;19.60;99.90;;;;;;5017928;28;20434;-86
2021/08/23 09:47:28;;;;;;;7.75;5.45;;;19.60;99.90;;;;;;5018142;28;20025;-87
2021/08/23 09:49:57;;;;;;;10.48;5.13;;;19.70;99.90;;;;;;5001947;28;20025;-86
2021/08/23 09:52:34;;;;;;;8.98;5.47;;;19.70;99.90;;;;;;5001951;28;20036;-86
2021/08/23 09:55:09;;;;;;;7.90;4.88;;;19.70;99.90;;;;;;5017078;28;20017;-87
2021/08/23 09:57:37;;;;;;;6.50;5.43;;;19.80;99.90;;;;;;5017396;28;20029;-87
2021/08/23 10:00:11;;;;;;;7.18;5.13;;;19.80;99.90;;;;;;5017073;28;20475;-87
2021/08/23 10:02:47;;;;;;;7.15;5.00;;;19.90;99.90;;;;;;5017323;28;20128;-87
2021/08/23 10:05:16;;;;;;;6.97;5.15;;;19.90;99.90;;;;;;5016778;28;20467;-87
2021/08/23 10:07:42;;;;;;;6.00;4.93;;;19.90;99.90;;;;;;5016493;28;20120;-87
2021/08/23 10:10:09;;;;;;;6.57;4.63;;;19.90;99.90;;;;;;4984408;28;20033;-87
2021/08/23 10:12:35;;;;;;;7.22;5.10;;;20.00;99.90;;;;;;5000220;28;20068;-87
2021/08/23 10:15:01;;;;;;;5.70;4.50;;;20.00;99.90;;;;;;5000964;28;20026;-87
2021/08/23 10:17:36;;;;;;;6.60;4.90;;;20.10;99.90;;;;;;4984105;28;20379;-86
2021/08/23 10:20:03;;;;;;;6.88;4.60;;;20.10;99.90;;;;;;5036257;28;20544;-86
2021/08/23 10:22:31;;;;;;;6.57;4.32;;;20.10;99.90;;;;;;5037790;28;20017;-86
2021/08/23 10:24:57;;;;;;;5.47;4.30;;;20.20;99.90;;;;;;5040922;28;20053;-86
2021/08/23 10:27:24;;;;;;;5.22;4.07;;;20.20;99.90;;;;;;5037291;28;20051;-86
2021/08/23 10:29:50;;;;;;;6.35;4.50;;;20.30;99.90;;;;;;5036735;28;20422;-87
2021/08/23 10:32:16;;;;;;;6.28;4.20;;;20.30;99.90;;;;;;5036328;28;20028;-87
2021/08/23 10:34:43;;;;;;;5.80;4.25;;;20.30;99.90;;;;;;5020723;28;20021;-86
2021/08/23 10:37:20;;;;;;;6.57;4.28;;;20.30;99.90;;;;;;5000081;28;20030;-86
2021/08/23 10:39:57;;;;;;;8.00;4.68;;;20.30;99.90;;;;;;5033935;28;20025;-86
2021/08/23 10:42:23;;;;;;;5.75;4.03;;;20.40;99.90;;;;;;5016229;28;20086;-86
2021/08/23 10:44:48;;;;;;;6.32;4.20;;;20.40;99.90;;;;;;5016355;28;20128;-86
2021/08/23 10:47:14;;;;;;;5.80;3.92;;;20.40;99.90;;;;;;5016158;28;20098;-86
2021/08/23 10:49:46;;;;;;;5.68;3.97;;;20.40;99.90;;;;;;5016503;28;20122;-87
2021/08/23 10:52:17;;;;;;;6.45;3.90;;;20.40;99.90;;;;;;5016021;28;20389;-86
2021/08/23 10:54:48;;;;;;;5.35;4.00;;;20.50;99.90;;;;;;5015985;28;20018;-87
2021/08/23 10:57:21;;;;;;;5.75;3.55;;;20.50;99.90;;;;;;5016429;28;20529;-86
2021/08/23 10:59:52;;;;;;;5.97;4.15;;;20.50;99.90;;;;;;5016835;28;20104;-87
2021/08/23 11:02:23;;;;;;;6.28;4.07;;;20.50;99.90;;;;;;5016261;28;20501;-86
2021/08/23 11:04:57;;;;;;;10.25;4.07;;;20.60;99.90;;;;;;5016820;28;20037;-86
2021/08/23 11:07:26;;;;;;;6.03;4.20;;;20.60;99.90;;;;;;5045471;23;20056;-84
2021/08/23 11:10:07;;;;;;;5.57;3.70;;;20.70;99.90;;;;;;5053648;28;20527;-86
2021/08/23 11:12:45;;;;;;;6.40;3.47;;;20.80;99.90;;;;;;5055730;28;20047;-85
2021/08/23 11:15:22;;;;;;;5.50;3.17;;;20.80;99.90;;;;;;5071606;28;20017;-84
2021/08/23 11:17:56;;;;;;;5.30;3.13;;;20.90;99.90;;;;;;5053992;28;20021;-84
2021/08/23 11:20:26;;;;;;;3.92;2.83;;;20.90;99.90;;;;;;5055343;28;20473;-84
2021/08/23 11:22:56;;;;;;;4.43;3.00;;;20.90;99.90;;;;;;5037882;28;20396;-84
2021/08/23 11:25:31;;;;;;;5.47;3.10;;;20.90;99.90;;;;;;5056649;28;20428;-84
2021/08/23 11:27:58;;;;;;;4.18;2.50;;;21.00;99.90;;;;;;5053814;28;20359;-83
2021/08/23 11:30:28;;;;;;;5.85;2.90;;;21.00;99.90;;;;;;5035763;28;20025;-85
2021/08/23 11:32:54;;;;;;;4.90;2.80;;;21.00;99.90;;;;;;5053597;28;20559;-84
2021/08/23 11:35:20;;;;;;;5.20;2.60;;;21.10;99.90;;;;;;5035673;28;20112;-85
2021/08/23 11:37:54;;;;;;;3.70;2.40;;;21.10;99.90;;;;;;5035355;28;20044;-85
2021/08/23 11:40:19;;;;;;;3.00;2.33;;;21.10;99.90;;;;;;5053473;28;20024;-85
2021/08/23 11:42:45;;;;;;;5.30;2.78;;;21.10;99.90;;;;;;5036669;28;20111;-84
2021/08/23 11:45:18;;;;;;;3.80;2.78;;;21.20;99.90;;;;;;5071451;28;20028;-85
2021/08/23 11:47:49;;;;;;;4.35;2.70;;;21.30;99.90;;;;;;5056636;28;20433;-86
2021/08/23 11:50:17;;;;;;;3.97;2.20;;;21.30;99.90;;;;;;5053657;28;20082;-85
2021/08/23 11:52:42;;;;;;;4.25;2.63;;;21.30;99.90;;;;;;5053128;28;20074;-84
2021/08/23 11:55:08;;;;;;;5.40;2.90;;;21.40;99.90;;;;;;5053950;28;20033;-84
2021/08/23 11:57:36;;;;;;;4.78;2.70;;;21.40;99.90;;;;;;5053856;28;20012;-84
2021/08/23 12:00:05;;;;;;;4.88;2.67;;;21.40;99.90;;;;;;5070767;28;20051;-84
2021/08/23 12:02:38;;;;;;;4.55;2.83;;;21.50;99.90;;;;;;5073175;28;20545;-84
2021/08/23 12:05:15;;;;;;;4.20;2.40;;;21.50;99.90;;;;;;5050355;28;20036;-84
2021/08/23 12:07:42;;;;;;;3.75;2.10;;;21.60;99.90;;;;;;5055231;28;20047;-85
2021/08/23 12:10:08;;;;;;;4.90;2.60;;;21.60;99.90;;;;;;5054218;28;20067;-82
2021/08/23 12:12:34;;;;;;;3.92;2.50;;;21.60;99.90;;;;;;5036773;28;20025;-83
2021/08/23 12:14:59;;;;;;;4.75;2.50;;;21.70;99.90;;;;;;5064237;28;20382;-83
2021/08/23 12:17:32;;;;;;;4.70;2.47;;;21.70;99.90;;;;;;5054294;28;20424;-85
2021/08/23 12:20:06;;;;;;;4.82;2.38;;;21.70;99.90;;;;;;5051626;28;20465;-85
2021/08/23 12:22:31;;;;;;;4.50;2.25;;;21.70;99.90;;;;;;5052175;28;20071;-86
2021/08/23 12:24:58;;;;;;;4.68;2.30;;;21.80;99.90;;;;;;5053882;28;20060;-85
2021/08/23 12:27:24;;;;;;;3.80;2.25;;;21.80;99.90;;;;;;5065509;28;20029;-85
2021/08/23 12:29:49;;;;;;;3.83;2.30;;;21.80;99.90;;;;;;5067269;28;20119;-85
2021/08/23 12:32:15;;;;;;;3.90;2.10;;;21.80;99.90;;;;;;5055167;28;20123;-85
2021/08/23 12:34:42;;;;;;;3.00;2.38;;;21.80;99.90;;;;;;5063745;28;20028;-84
2021/08/23 12:37:08;;;;;;;4.03;2.38;;;21.90;99.90;;;;;;5073322;28;20537;-85
2021/08/23 12:39:34;;;;;;;3.25;2.30;;;22.00;99.90;;;;;;5074531;28;20013;-86
2021/08/23 12:42:04;;;;;;;3.00;2.10;;;22.00;99.90;;;;;;5068114;28;20039;-86
2021/08/23 12:44:29;;;;;;;3.50;2.33;;;22.00;99.90;;;;;;5076596;28;20461;-86
2021/08/23 12:46:55;;;;;;;3.30;2.13;;;22.10;99.90;;;;;;5076753;28;20039;-86
2021/08/23 12:49:21;;;;;;;6.03;2.33;;;22.10;99.90;;;;;;5057948;28;20036;-86